sensor_id;sensor_type;location;lat;lon;timestamp;P1;durP1;ratioP1;P2;durP2;ratioP2
53044;SDS011;38930;52.766;6.884;2023-03-20T00:00:55;11.23;;;6.47;;
53044;SDS011;38930;52.766;6.884;2023-03-20T00:03:22;11.93;;;6.70;;
53044;SDS011;38930;52.766;6.884;2023-03-20T00:05:47;10.18;;;5.93;;
53044;SDS011;38930;52.766;6.884;2023-03-20T00:10:40;11.35;;;6.00;;
53044;SDS011;38930;52.766;6.884;2023-03-20T00:13:13;10.52;;;6.07;;
53044;SDS011;38930;52.766;6.884;2023-03-20T00:15:46;10.88;;;6.13;;
53044;SDS011;38930;52.766;6.884;2023-03-20T00:18:13;12.73;;;6.97;;
53044;SDS011;38930;52.766;6.884;2023-03-20T00:20:46;10.77;;;6.68;;
53044;SDS011;38930;52.766;6.884;2023-03-20T00:23:17;10.90;;;6.70;;
53044;SDS011;38930;52.766;6.884;2023-03-20T00:25:43;11.30;;;6.82;;
53044;SDS011;38930;52.766;6.884;2023-03-20T00:31:30;12.82;;;6.60;;
53044;SDS011;38930;52.766;6.884;2023-03-20T00:33:58;11.68;;;6.70;;
53044;SDS011;38930;52.766;6.884;2023-03-20T00:36:25;13.70;;;6.93;;
53044;SDS011;38930;52.766;6.884;2023-03-20T00:38:52;16.52;;;6.95;;
53044;SDS011;38930;52.766;6.884;2023-03-20T00:41:22;11.47;;;6.50;;
53044;SDS011;38930;52.766;6.884;2023-03-20T00:43:55;14.93;;;7.45;;
53044;SDS011;38930;52.766;6.884;2023-03-20T00:46:24;13.02;;;7.00;;
53044;SDS011;38930;52.766;6.884;2023-03-20T00:48:50;16.03;;;7.93;;
53044;SDS011;38930;52.766;6.884;2023-03-20T00:51:17;15.52;;;7.57;;
53044;SDS011;38930;52.766;6.884;2023-03-20T00:53:43;17.52;;;7.63;;
53044;SDS011;38930;52.766;6.884;2023-03-20T00:59:06;20.60;;;8.07;;
53044;SDS011;38930;52.766;6.884;2023-03-20T01:01:38;18.85;;;9.02;;
53044;SDS011;38930;52.766;6.884;2023-03-20T01:04:07;21.35;;;8.88;;
53044;SDS011;38930;52.766;6.884;2023-03-20T01:06:38;19.42;;;9.55;;
53044;SDS011;38930;52.766;6.884;2023-03-20T01:09:03;26.25;;;9.88;;
53044;SDS011;38930;52.766;6.884;2023-03-20T01:11:29;24.67;;;8.55;;
53044;SDS011;38930;52.766;6.884;2023-03-20T01:13:55;21.45;;;8.43;;
53044;SDS011;38930;52.766;6.884;2023-03-20T01:16:22;22.35;;;9.43;;
53044;SDS011;38930;52.766;6.884;2023-03-20T01:18:49;20.00;;;9.27;;
53044;SDS011;38930;52.766;6.884;2023-03-20T01:21:16;20.50;;;8.13;;
53044;SDS011;38930;52.766;6.884;2023-03-20T01:23:42;22.00;;;8.68;;
53044;SDS011;38930;52.766;6.884;2023-03-20T01:26:30;16.85;;;7.00;;
53044;SDS011;38930;52.766;6.884;2023-03-20T01:31:42;14.75;;;6.53;;
53044;SDS011;38930;52.766;6.884;2023-03-20T01:34:09;12.97;;;6.10;;
53044;SDS011;38930;52.766;6.884;2023-03-20T01:36:36;12.85;;;6.13;;
53044;SDS011;38930;52.766;6.884;2023-03-20T01:39:02;11.77;;;5.25;;
53044;SDS011;38930;52.766;6.884;2023-03-20T01:41:28;11.45;;;5.55;;
53044;SDS011;38930;52.766;6.884;2023-03-20T01:43:55;11.73;;;5.50;;
53044;SDS011;38930;52.766;6.884;2023-03-20T01:46:25;13.05;;;5.57;;
53044;SDS011;38930;52.766;6.884;2023-03-20T01:51:42;10.15;;;4.90;;
53044;SDS011;38930;52.766;6.884;2023-03-20T01:54:18;12.02;;;5.35;;
53044;SDS011;38930;52.766;6.884;2023-03-20T01:56:49;10.73;;;5.15;;
53044;SDS011;38930;52.766;6.884;2023-03-20T01:59:40;9.85;;;5.05;;
53044;SDS011;38930;52.766;6.884;2023-03-20T02:02:14;12.23;;;5.35;;
53044;SDS011;38930;52.766;6.884;2023-03-20T02:04:45;9.48;;;4.82;;
53044;SDS011;38930;52.766;6.884;2023-03-20T02:07:14;13.25;;;5.00;;
53044;SDS011;38930;52.766;6.884;2023-03-20T02:09:42;10.82;;;5.32;;
53044;SDS011;38930;52.766;6.884;2023-03-20T02:12:10;11.57;;;4.95;;
53044;SDS011;38930;52.766;6.884;2023-03-20T02:14:36;10.02;;;4.80;;
53044;SDS011;38930;52.766;6.884;2023-03-20T02:17:03;8.40;;;4.78;;
53044;SDS011;38930;52.766;6.884;2023-03-20T02:19:36;12.90;;;5.30;;
53044;SDS011;38930;52.766;6.884;2023-03-20T02:25:27;7.85;;;4.10;;
53044;SDS011;38930;52.766;6.884;2023-03-20T02:34:55;10.13;;;4.65;;
53044;SDS011;38930;52.766;6.884;2023-03-20T02:39:59;13.55;;;5.65;;
53044;SDS011;38930;52.766;6.884;2023-03-20T02:42:46;11.45;;;5.25;;
53044;SDS011;38930;52.766;6.884;2023-03-20T02:45:28;11.73;;;5.65;;
53044;SDS011;38930;52.766;6.884;2023-03-20T02:48:10;12.48;;;5.68;;
53044;SDS011;38930;52.766;6.884;2023-03-20T02:53:31;13.63;;;6.05;;
53044;SDS011;38930;52.766;6.884;2023-03-20T02:56:31;12.63;;;5.55;;
53044;SDS011;38930;52.766;6.884;2023-03-20T03:01:54;14.02;;;7.07;;
53044;SDS011;38930;52.766;6.884;2023-03-20T03:04:26;19.80;;;7.47;;
53044;SDS011;38930;52.766;6.884;2023-03-20T03:06:56;15.80;;;7.55;;
53044;SDS011;38930;52.766;6.884;2023-03-20T03:09:28;14.15;;;7.20;;
53044;SDS011;38930;52.766;6.884;2023-03-20T03:12:02;17.15;;;7.93;;
53044;SDS011;38930;52.766;6.884;2023-03-20T03:14:40;15.00;;;7.25;;
53044;SDS011;38930;52.766;6.884;2023-03-20T03:17:12;17.25;;;8.07;;
53044;SDS011;38930;52.766;6.884;2023-03-20T03:19:42;16.95;;;8.60;;
53044;SDS011;38930;52.766;6.884;2023-03-20T03:22:13;21.13;;;8.80;;
53044;SDS011;38930;52.766;6.884;2023-03-20T03:24:47;15.60;;;8.48;;
53044;SDS011;38930;52.766;6.884;2023-03-20T03:27:16;16.38;;;8.27;;
53044;SDS011;38930;52.766;6.884;2023-03-20T03:29:42;19.35;;;9.80;;
53044;SDS011;38930;52.766;6.884;2023-03-20T03:32:32;18.00;;;9.27;;
53044;SDS011;38930;52.766;6.884;2023-03-20T03:35:00;17.50;;;8.82;;
53044;SDS011;38930;52.766;6.884;2023-03-20T03:37:44;19.27;;;9.80;;
53044;SDS011;38930;52.766;6.884;2023-03-20T03:42:55;16.08;;;8.82;;
53044;SDS011;38930;52.766;6.884;2023-03-20T03:45:31;19.10;;;9.02;;
53044;SDS011;38930;52.766;6.884;2023-03-20T03:48:03;16.50;;;8.85;;
53044;SDS011;38930;52.766;6.884;2023-03-20T03:50:47;20.33;;;9.52;;
53044;SDS011;38930;52.766;6.884;2023-03-20T03:53:19;21.13;;;9.82;;
53044;SDS011;38930;52.766;6.884;2023-03-20T03:55:49;20.67;;;10.32;;
53044;SDS011;38930;52.766;6.884;2023-03-20T03:58:23;19.75;;;9.73;;
53044;SDS011;38930;52.766;6.884;2023-03-20T04:00:56;21.02;;;10.77;;
53044;SDS011;38930;52.766;6.884;2023-03-20T04:03:26;19.63;;;9.75;;
53044;SDS011;38930;52.766;6.884;2023-03-20T04:05:55;19.17;;;9.43;;
53044;SDS011;38930;52.766;6.884;2023-03-20T04:08:22;20.65;;;9.23;;
53044;SDS011;38930;52.766;6.884;2023-03-20T04:10:48;20.10;;;9.43;;
53044;SDS011;38930;52.766;6.884;2023-03-20T04:13:13;16.60;;;8.32;;
53044;SDS011;38930;52.766;6.884;2023-03-20T04:15:40;19.40;;;8.82;;
53044;SDS011;38930;52.766;6.884;2023-03-20T04:18:06;18.27;;;9.15;;
53044;SDS011;38930;52.766;6.884;2023-03-20T04:20:33;18.35;;;8.70;;
53044;SDS011;38930;52.766;6.884;2023-03-20T04:22:59;19.23;;;7.53;;
53044;SDS011;38930;52.766;6.884;2023-03-20T04:25:25;18.83;;;8.18;;
53044;SDS011;38930;52.766;6.884;2023-03-20T04:27:51;19.30;;;8.27;;
53044;SDS011;38930;52.766;6.884;2023-03-20T04:30:17;20.08;;;7.60;;
53044;SDS011;38930;52.766;6.884;2023-03-20T04:32:43;17.33;;;6.85;;
53044;SDS011;38930;52.766;6.884;2023-03-20T04:35:09;14.93;;;6.25;;
53044;SDS011;38930;52.766;6.884;2023-03-20T04:37:35;14.52;;;6.60;;
53044;SDS011;38930;52.766;6.884;2023-03-20T04:40:01;16.98;;;7.05;;
53044;SDS011;38930;52.766;6.884;2023-03-20T04:42:26;14.52;;;6.55;;
53044;SDS011;38930;52.766;6.884;2023-03-20T04:44:52;13.68;;;6.85;;
53044;SDS011;38930;52.766;6.884;2023-03-20T04:47:17;11.90;;;5.97;;
53044;SDS011;38930;52.766;6.884;2023-03-20T04:49:43;11.15;;;5.10;;
53044;SDS011;38930;52.766;6.884;2023-03-20T04:52:09;14.77;;;5.78;;
53044;SDS011;38930;52.766;6.884;2023-03-20T04:54:34;12.88;;;5.47;;
53044;SDS011;38930;52.766;6.884;2023-03-20T04:57:00;14.23;;;5.45;;
53044;SDS011;38930;52.766;6.884;2023-03-20T04:59:26;11.82;;;5.35;;
53044;SDS011;38930;52.766;6.884;2023-03-20T05:01:51;7.43;;;4.70;;
53044;SDS011;38930;52.766;6.884;2023-03-20T05:04:17;9.55;;;5.15;;
53044;SDS011;38930;52.766;6.884;2023-03-20T05:06:42;11.55;;;4.97;;
53044;SDS011;38930;52.766;6.884;2023-03-20T05:09:12;9.70;;;5.40;;
53044;SDS011;38930;52.766;6.884;2023-03-20T05:11:37;11.18;;;5.57;;
53044;SDS011;38930;52.766;6.884;2023-03-20T05:14:03;15.13;;;6.47;;
53044;SDS011;38930;52.766;6.884;2023-03-20T05:18:56;14.77;;;7.22;;
53044;SDS011;38930;52.766;6.884;2023-03-20T05:21:21;11.77;;;6.68;;
53044;SDS011;38930;52.766;6.884;2023-03-20T05:23:47;13.13;;;6.57;;
53044;SDS011;38930;52.766;6.884;2023-03-20T05:26:12;10.95;;;6.47;;
53044;SDS011;38930;52.766;6.884;2023-03-20T05:28:38;10.50;;;6.15;;
53044;SDS011;38930;52.766;6.884;2023-03-20T05:31:04;12.98;;;6.93;;
53044;SDS011;38930;52.766;6.884;2023-03-20T05:33:30;17.00;;;6.67;;
53044;SDS011;38930;52.766;6.884;2023-03-20T05:35:55;18.73;;;7.47;;
53044;SDS011;38930;52.766;6.884;2023-03-20T05:38:21;12.38;;;7.10;;
53044;SDS011;38930;52.766;6.884;2023-03-20T05:40:47;16.70;;;7.60;;
53044;SDS011;38930;52.766;6.884;2023-03-20T05:43:13;18.17;;;7.60;;
53044;SDS011;38930;52.766;6.884;2023-03-20T05:45:40;14.80;;;7.78;;
53044;SDS011;38930;52.766;6.884;2023-03-20T05:48:07;12.52;;;7.13;;
53044;SDS011;38930;52.766;6.884;2023-03-20T05:50:33;19.65;;;9.15;;
53044;SDS011;38930;52.766;6.884;2023-03-20T05:52:58;13.75;;;7.72;;
53044;SDS011;38930;52.766;6.884;2023-03-20T05:55:24;15.40;;;8.40;;
53044;SDS011;38930;52.766;6.884;2023-03-20T05:57:51;18.73;;;8.95;;
53044;SDS011;38930;52.766;6.884;2023-03-20T06:00:16;15.68;;;8.52;;
53044;SDS011;38930;52.766;6.884;2023-03-20T06:02:42;16.83;;;9.02;;
53044;SDS011;38930;52.766;6.884;2023-03-20T06:05:08;14.82;;;8.32;;
53044;SDS011;38930;52.766;6.884;2023-03-20T06:07:34;16.20;;;9.07;;
53044;SDS011;38930;52.766;6.884;2023-03-20T06:09:59;15.90;;;8.27;;
53044;SDS011;38930;52.766;6.884;2023-03-20T06:12:25;13.10;;;7.60;;
53044;SDS011;38930;52.766;6.884;2023-03-20T06:14:51;14.77;;;8.70;;
53044;SDS011;38930;52.766;6.884;2023-03-20T06:17:16;16.02;;;8.70;;
53044;SDS011;38930;52.766;6.884;2023-03-20T06:19:42;18.27;;;7.90;;
53044;SDS011;38930;52.766;6.884;2023-03-20T06:22:07;17.55;;;8.35;;
53044;SDS011;38930;52.766;6.884;2023-03-20T06:24:33;14.55;;;8.07;;
53044;SDS011;38930;52.766;6.884;2023-03-20T06:27:00;14.57;;;7.78;;
53044;SDS011;38930;52.766;6.884;2023-03-20T06:29:25;11.63;;;7.65;;
53044;SDS011;38930;52.766;6.884;2023-03-20T06:31:52;11.48;;;6.55;;
53044;SDS011;38930;52.766;6.884;2023-03-20T06:34:18;10.82;;;7.20;;
53044;SDS011;38930;52.766;6.884;2023-03-20T06:36:44;12.18;;;6.70;;
53044;SDS011;38930;52.766;6.884;2023-03-20T06:39:09;12.40;;;7.30;;
53044;SDS011;38930;52.766;6.884;2023-03-20T06:41:35;14.43;;;6.68;;
53044;SDS011;38930;52.766;6.884;2023-03-20T06:44:01;11.70;;;6.28;;
53044;SDS011;38930;52.766;6.884;2023-03-20T06:46:27;11.85;;;6.10;;
53044;SDS011;38930;52.766;6.884;2023-03-20T06:48:53;13.20;;;7.03;;
53044;SDS011;38930;52.766;6.884;2023-03-20T06:51:19;15.27;;;6.85;;
53044;SDS011;38930;52.766;6.884;2023-03-20T06:53:45;12.45;;;6.68;;
53044;SDS011;38930;52.766;6.884;2023-03-20T06:56:11;14.02;;;6.70;;
53044;SDS011;38930;52.766;6.884;2023-03-20T06:58:37;13.63;;;6.78;;
53044;SDS011;38930;52.766;6.884;2023-03-20T07:01:10;13.23;;;6.30;;
53044;SDS011;38930;52.766;6.884;2023-03-20T07:03:37;10.85;;;6.22;;
53044;SDS011;38930;52.766;6.884;2023-03-20T07:06:04;18.67;;;8.18;;
53044;SDS011;38930;52.766;6.884;2023-03-20T07:08:31;14.38;;;6.78;;
53044;SDS011;38930;52.766;6.884;2023-03-20T07:10:57;14.85;;;6.35;;
53044;SDS011;38930;52.766;6.884;2023-03-20T07:13:23;12.30;;;6.38;;
53044;SDS011;38930;52.766;6.884;2023-03-20T07:15:50;11.73;;;5.85;;
53044;SDS011;38930;52.766;6.884;2023-03-20T07:18:16;10.90;;;5.80;;
53044;SDS011;38930;52.766;6.884;2023-03-20T07:20:43;13.35;;;6.00;;
53044;SDS011;38930;52.766;6.884;2023-03-20T07:23:09;11.40;;;6.07;;
53044;SDS011;38930;52.766;6.884;2023-03-20T07:25:34;10.25;;;6.13;;
53044;SDS011;38930;52.766;6.884;2023-03-20T07:28:00;12.00;;;6.07;;
53044;SDS011;38930;52.766;6.884;2023-03-20T07:30:26;15.90;;;6.82;;
53044;SDS011;38930;52.766;6.884;2023-03-20T07:32:52;11.35;;;5.63;;
53044;SDS011;38930;52.766;6.884;2023-03-20T07:35:17;14.93;;;6.57;;
53044;SDS011;38930;52.766;6.884;2023-03-20T07:37:44;10.95;;;6.00;;
53044;SDS011;38930;52.766;6.884;2023-03-20T07:40:10;12.23;;;5.82;;
53044;SDS011;38930;52.766;6.884;2023-03-20T07:42:36;14.68;;;6.20;;
53044;SDS011;38930;52.766;6.884;2023-03-20T07:45:01;12.07;;;5.90;;
53044;SDS011;38930;52.766;6.884;2023-03-20T07:47:27;12.57;;;5.85;;
53044;SDS011;38930;52.766;6.884;2023-03-20T07:49:53;13.27;;;5.68;;
53044;SDS011;38930;52.766;6.884;2023-03-20T07:52:18;11.55;;;6.25;;
53044;SDS011;38930;52.766;6.884;2023-03-20T07:54:44;10.20;;;6.03;;
53044;SDS011;38930;52.766;6.884;2023-03-20T07:57:10;10.13;;;5.60;;
53044;SDS011;38930;52.766;6.884;2023-03-20T07:59:37;11.60;;;6.18;;
53044;SDS011;38930;52.766;6.884;2023-03-20T08:02:02;11.35;;;5.70;;
53044;SDS011;38930;52.766;6.884;2023-03-20T08:04:28;11.38;;;6.32;;
53044;SDS011;38930;52.766;6.884;2023-03-20T08:06:54;11.95;;;5.80;;
53044;SDS011;38930;52.766;6.884;2023-03-20T08:09:19;11.52;;;6.05;;
53044;SDS011;38930;52.766;6.884;2023-03-20T08:11:45;19.23;;;6.65;;
53044;SDS011;38930;52.766;6.884;2023-03-20T08:14:11;10.57;;;5.60;;
53044;SDS011;38930;52.766;6.884;2023-03-20T08:16:37;13.38;;;6.78;;
53044;SDS011;38930;52.766;6.884;2023-03-20T08:19:02;11.18;;;5.72;;
53044;SDS011;38930;52.766;6.884;2023-03-20T08:21:30;12.30;;;6.22;;
53044;SDS011;38930;52.766;6.884;2023-03-20T08:23:57;14.60;;;6.55;;
53044;SDS011;38930;52.766;6.884;2023-03-20T08:26:23;14.25;;;6.18;;
53044;SDS011;38930;52.766;6.884;2023-03-20T08:28:49;14.32;;;6.43;;
53044;SDS011;38930;52.766;6.884;2023-03-20T08:31:15;9.98;;;6.22;;
53044;SDS011;38930;52.766;6.884;2023-03-20T08:33:42;13.45;;;7.20;;
53044;SDS011;38930;52.766;6.884;2023-03-20T08:36:08;11.90;;;6.45;;
53044;SDS011;38930;52.766;6.884;2023-03-20T08:38:34;15.57;;;6.63;;
53044;SDS011;38930;52.766;6.884;2023-03-20T08:41:00;14.57;;;7.18;;
53044;SDS011;38930;52.766;6.884;2023-03-20T08:43:25;12.45;;;6.30;;
53044;SDS011;38930;52.766;6.884;2023-03-20T08:45:51;13.52;;;7.25;;
53044;SDS011;38930;52.766;6.884;2023-03-20T08:48:17;16.25;;;7.18;;
53044;SDS011;38930;52.766;6.884;2023-03-20T08:50:42;11.02;;;6.43;;
53044;SDS011;38930;52.766;6.884;2023-03-20T08:53:08;13.88;;;7.88;;
53044;SDS011;38930;52.766;6.884;2023-03-20T08:55:34;15.03;;;7.07;;
53044;SDS011;38930;52.766;6.884;2023-03-20T09:00:27;13.93;;;6.68;;
53044;SDS011;38930;52.766;6.884;2023-03-20T09:02:53;13.90;;;6.93;;
53044;SDS011;38930;52.766;6.884;2023-03-20T09:05:18;12.23;;;6.45;;
53044;SDS011;38930;52.766;6.884;2023-03-20T09:07:44;12.93;;;6.63;;
53044;SDS011;38930;52.766;6.884;2023-03-20T09:10:10;12.82;;;6.40;;
53044;SDS011;38930;52.766;6.884;2023-03-20T09:12:36;10.93;;;6.00;;
53044;SDS011;38930;52.766;6.884;2023-03-20T09:15:02;12.23;;;6.28;;
53044;SDS011;38930;52.766;6.884;2023-03-20T09:17:29;15.45;;;6.57;;
53044;SDS011;38930;52.766;6.884;2023-03-20T09:19:55;11.65;;;6.32;;
53044;SDS011;38930;52.766;6.884;2023-03-20T09:22:21;13.87;;;6.80;;
53044;SDS011;38930;52.766;6.884;2023-03-20T09:24:47;13.10;;;6.63;;
53044;SDS011;38930;52.766;6.884;2023-03-20T09:27:13;14.85;;;6.18;;
53044;SDS011;38930;52.766;6.884;2023-03-20T09:29:39;16.45;;;6.65;;
53044;SDS011;38930;52.766;6.884;2023-03-20T09:32:05;15.15;;;6.85;;
53044;SDS011;38930;52.766;6.884;2023-03-20T09:34:31;12.00;;;6.40;;
53044;SDS011;38930;52.766;6.884;2023-03-20T09:36:56;17.33;;;6.82;;
53044;SDS011;38930;52.766;6.884;2023-03-20T09:39:22;9.98;;;5.22;;
53044;SDS011;38930;52.766;6.884;2023-03-20T09:41:48;12.27;;;6.13;;
53044;SDS011;38930;52.766;6.884;2023-03-20T09:50:51;13.43;;;6.18;;
53044;SDS011;38930;52.766;6.884;2023-03-20T09:53:27;10.90;;;5.93;;
53044;SDS011;38930;52.766;6.884;2023-03-20T09:56:02;13.80;;;6.53;;
53044;SDS011;38930;52.766;6.884;2023-03-20T09:58:30;13.95;;;6.30;;
53044;SDS011;38930;52.766;6.884;2023-03-20T10:00:59;12.75;;;5.82;;
53044;SDS011;38930;52.766;6.884;2023-03-20T10:03:27;11.20;;;6.05;;
53044;SDS011;38930;52.766;6.884;2023-03-20T10:06:08;11.05;;;5.43;;
53044;SDS011;38930;52.766;6.884;2023-03-20T10:08:38;14.82;;;6.47;;
53044;SDS011;38930;52.766;6.884;2023-03-20T10:19:48;11.55;;;5.47;;
53044;SDS011;38930;52.766;6.884;2023-03-20T10:22:21;12.43;;;5.72;;
53044;SDS011;38930;52.766;6.884;2023-03-20T10:24:59;12.00;;;5.95;;
53044;SDS011;38930;52.766;6.884;2023-03-20T10:27:45;10.35;;;5.22;;
53044;SDS011;38930;52.766;6.884;2023-03-20T10:36:08;11.27;;;4.53;;
53044;SDS011;38930;52.766;6.884;2023-03-20T10:39:01;8.07;;;4.60;;
53044;SDS011;38930;52.766;6.884;2023-03-20T10:41:53;11.63;;;4.35;;
53044;SDS011;38930;52.766;6.884;2023-03-20T10:44:28;14.75;;;4.78;;
53044;SDS011;38930;52.766;6.884;2023-03-20T10:47:02;8.93;;;4.60;;
53044;SDS011;38930;52.766;6.884;2023-03-20T10:49:52;8.38;;;4.38;;
53044;SDS011;38930;52.766;6.884;2023-03-20T10:52:23;10.18;;;4.57;;
53044;SDS011;38930;52.766;6.884;2023-03-20T10:55:14;9.13;;;5.28;;
53044;SDS011;38930;52.766;6.884;2023-03-20T10:57:50;11.30;;;5.20;;
53044;SDS011;38930;52.766;6.884;2023-03-20T11:00:21;13.00;;;5.88;;
53044;SDS011;38930;52.766;6.884;2023-03-20T11:02:49;11.65;;;6.45;;
53044;SDS011;38930;52.766;6.884;2023-03-20T11:05:30;12.07;;;5.97;;
53044;SDS011;38930;52.766;6.884;2023-03-20T11:08:05;13.65;;;5.85;;
53044;SDS011;38930;52.766;6.884;2023-03-20T11:10:33;11.32;;;6.35;;
53044;SDS011;38930;52.766;6.884;2023-03-20T11:15:54;11.93;;;5.93;;
53044;SDS011;38930;52.766;6.884;2023-03-20T11:18:23;11.48;;;6.85;;
53044;SDS011;38930;52.766;6.884;2023-03-20T11:20:51;11.65;;;6.25;;
53044;SDS011;38930;52.766;6.884;2023-03-20T11:23:25;12.20;;;6.15;;
53044;SDS011;38930;52.766;6.884;2023-03-20T11:25:57;12.68;;;6.30;;
53044;SDS011;38930;52.766;6.884;2023-03-20T11:28:29;13.10;;;5.97;;
53044;SDS011;38930;52.766;6.884;2023-03-20T11:31:01;13.25;;;6.22;;
53044;SDS011;38930;52.766;6.884;2023-03-20T11:33:38;13.23;;;5.97;;
53044;SDS011;38930;52.766;6.884;2023-03-20T11:36:26;9.80;;;5.70;;
53044;SDS011;38930;52.766;6.884;2023-03-20T11:38:58;11.52;;;6.07;;
53044;SDS011;38930;52.766;6.884;2023-03-20T11:41:50;13.13;;;6.20;;
53044;SDS011;38930;52.766;6.884;2023-03-20T11:44:27;12.68;;;5.05;;
53044;SDS011;38930;52.766;6.884;2023-03-20T11:46:54;11.43;;;5.25;;
53044;SDS011;38930;52.766;6.884;2023-03-20T11:49:23;11.40;;;5.22;;
53044;SDS011;38930;52.766;6.884;2023-03-20T11:54:17;10.23;;;5.32;;
53044;SDS011;38930;52.766;6.884;2023-03-20T11:56:53;13.60;;;5.40;;
53044;SDS011;38930;52.766;6.884;2023-03-20T11:59:21;10.15;;;5.35;;
53044;SDS011;38930;52.766;6.884;2023-03-20T12:01:52;11.75;;;5.00;;
53044;SDS011;38930;52.766;6.884;2023-03-20T12:04:25;9.85;;;4.75;;
53044;SDS011;38930;52.766;6.884;2023-03-20T12:06:56;10.30;;;5.97;;
53044;SDS011;38930;52.766;6.884;2023-03-20T12:09:41;9.50;;;5.03;;
53044;SDS011;38930;52.766;6.884;2023-03-20T12:12:28;10.77;;;5.25;;
53044;SDS011;38930;52.766;6.884;2023-03-20T12:18:09;10.18;;;5.57;;
53044;SDS011;38930;52.766;6.884;2023-03-20T12:23:28;11.15;;;5.70;;
53044;SDS011;38930;52.766;6.884;2023-03-20T12:26:00;11.13;;;4.68;;
53044;SDS011;38930;52.766;6.884;2023-03-20T12:28:32;10.80;;;5.38;;
53044;SDS011;38930;52.766;6.884;2023-03-20T12:36:41;8.43;;;4.75;;
53044;SDS011;38930;52.766;6.884;2023-03-20T12:39:16;8.23;;;4.75;;
53044;SDS011;38930;52.766;6.884;2023-03-20T12:41:50;10.05;;;4.28;;
53044;SDS011;38930;52.766;6.884;2023-03-20T12:50:16;6.15;;;3.63;;
53044;SDS011;38930;52.766;6.884;2023-03-20T12:53:08;7.03;;;3.45;;
53044;SDS011;38930;52.766;6.884;2023-03-20T13:01:03;7.22;;;3.25;;
53044;SDS011;38930;52.766;6.884;2023-03-20T13:03:36;5.82;;;3.60;;
53044;SDS011;38930;52.766;6.884;2023-03-20T13:17:04;7.22;;;2.70;;
53044;SDS011;38930;52.766;6.884;2023-03-20T13:22:18;6.03;;;2.80;;
53044;SDS011;38930;52.766;6.884;2023-03-20T13:24:49;6.32;;;3.00;;
53044;SDS011;38930;52.766;6.884;2023-03-20T13:27:39;10.00;;;3.65;;
53044;SDS011;38930;52.766;6.884;2023-03-20T13:38:05;6.57;;;3.08;;
53044;SDS011;38930;52.766;6.884;2023-03-20T13:40:44;9.43;;;2.70;;
53044;SDS011;38930;52.766;6.884;2023-03-20T13:46:11;8.73;;;2.63;;
53044;SDS011;38930;52.766;6.884;2023-03-20T13:48:40;6.70;;;2.95;;
53044;SDS011;38930;52.766;6.884;2023-03-20T13:51:12;6.82;;;2.72;;
53044;SDS011;38930;52.766;6.884;2023-03-20T13:59:36;5.80;;;2.75;;
53044;SDS011;38930;52.766;6.884;2023-03-20T14:04:50;8.15;;;2.97;;
53044;SDS011;38930;52.766;6.884;2023-03-20T14:07:30;5.07;;;3.15;;
53044;SDS011;38930;52.766;6.884;2023-03-20T14:10:06;5.88;;;2.97;;
53044;SDS011;38930;52.766;6.884;2023-03-20T14:12:56;5.13;;;3.17;;
53044;SDS011;38930;52.766;6.884;2023-03-20T14:15:32;4.93;;;2.40;;
53044;SDS011;38930;52.766;6.884;2023-03-20T14:18:17;11.45;;;2.95;;
53044;SDS011;38930;52.766;6.884;2023-03-20T14:20:52;7.30;;;2.97;;
53044;SDS011;38930;52.766;6.884;2023-03-20T14:23:27;4.82;;;2.70;;
53044;SDS011;38930;52.766;6.884;2023-03-20T14:25:54;5.93;;;2.63;;
53044;SDS011;38930;52.766;6.884;2023-03-20T14:28:24;4.38;;;2.63;;
53044;SDS011;38930;52.766;6.884;2023-03-20T14:31:12;5.85;;;2.97;;
53044;SDS011;38930;52.766;6.884;2023-03-20T14:33:53;7.25;;;2.75;;
53044;SDS011;38930;52.766;6.884;2023-03-20T14:44:49;8.43;;;3.03;;
53044;SDS011;38930;52.766;6.884;2023-03-20T14:47:47;11.93;;;3.58;;
53044;SDS011;38930;52.766;6.884;2023-03-20T14:58:04;8.05;;;3.80;;
53044;SDS011;38930;52.766;6.884;2023-03-20T15:00:50;8.85;;;3.70;;
53044;SDS011;38930;52.766;6.884;2023-03-20T15:03:16;10.90;;;4.30;;
53044;SDS011;38930;52.766;6.884;2023-03-20T15:05:43;8.77;;;4.10;;
53044;SDS011;38930;52.766;6.884;2023-03-20T15:08:17;12.10;;;4.63;;
53044;SDS011;38930;52.766;6.884;2023-03-20T15:10:50;9.13;;;3.97;;
53044;SDS011;38930;52.766;6.884;2023-03-20T15:13:18;13.93;;;4.60;;
53044;SDS011;38930;52.766;6.884;2023-03-20T15:18:41;7.25;;;4.55;;
53044;SDS011;38930;52.766;6.884;2023-03-20T15:21:12;11.05;;;5.55;;
53044;SDS011;38930;52.766;6.884;2023-03-20T15:23:47;10.77;;;5.80;;
53044;SDS011;38930;52.766;6.884;2023-03-20T15:26:13;11.35;;;5.38;;
53044;SDS011;38930;52.766;6.884;2023-03-20T15:28:42;8.75;;;5.50;;
53044;SDS011;38930;52.766;6.884;2023-03-20T15:31:18;10.45;;;6.10;;
53044;SDS011;38930;52.766;6.884;2023-03-20T15:33:47;11.43;;;5.72;;
53044;SDS011;38930;52.766;6.884;2023-03-20T15:36:17;9.48;;;5.93;;
53044;SDS011;38930;52.766;6.884;2023-03-20T15:38:46;9.02;;;5.40;;
53044;SDS011;38930;52.766;6.884;2023-03-20T15:43:52;10.73;;;5.72;;
53044;SDS011;38930;52.766;6.884;2023-03-20T15:46:17;13.98;;;6.70;;
53044;SDS011;38930;52.766;6.884;2023-03-20T15:48:49;12.32;;;6.45;;
53044;SDS011;38930;52.766;6.884;2023-03-20T15:51:15;11.82;;;6.45;;
53044;SDS011;38930;52.766;6.884;2023-03-20T15:53:43;11.10;;;6.63;;
53044;SDS011;38930;52.766;6.884;2023-03-20T15:56:12;11.60;;;7.22;;
53044;SDS011;38930;52.766;6.884;2023-03-20T15:58:40;12.48;;;7.03;;
53044;SDS011;38930;52.766;6.884;2023-03-20T16:01:07;10.52;;;6.75;;
53044;SDS011;38930;52.766;6.884;2023-03-20T16:03:34;13.23;;;6.82;;
53044;SDS011;38930;52.766;6.884;2023-03-20T16:06:02;14.98;;;6.05;;
53044;SDS011;38930;52.766;6.884;2023-03-20T16:08:30;14.02;;;6.30;;
53044;SDS011;38930;52.766;6.884;2023-03-20T16:13:29;11.27;;;6.38;;
53044;SDS011;38930;52.766;6.884;2023-03-20T16:15:59;10.85;;;7.35;;
53044;SDS011;38930;52.766;6.884;2023-03-20T16:18:25;12.82;;;6.90;;
53044;SDS011;38930;52.766;6.884;2023-03-20T16:20:59;12.48;;;7.13;;
53044;SDS011;38930;52.766;6.884;2023-03-20T16:25:57;14.60;;;7.63;;
53044;SDS011;38930;52.766;6.884;2023-03-20T16:28:25;12.32;;;7.80;;
53044;SDS011;38930;52.766;6.884;2023-03-20T16:30:51;14.85;;;8.02;;
53044;SDS011;38930;52.766;6.884;2023-03-20T16:33:19;15.43;;;8.27;;
53044;SDS011;38930;52.766;6.884;2023-03-20T16:35:48;11.32;;;7.60;;
53044;SDS011;38930;52.766;6.884;2023-03-20T16:43:55;17.65;;;7.82;;
53044;SDS011;38930;52.766;6.884;2023-03-20T16:46:21;10.83;;;7.10;;
53044;SDS011;38930;52.766;6.884;2023-03-20T16:48:55;18.52;;;8.10;;
53044;SDS011;38930;52.766;6.884;2023-03-20T16:51:25;15.82;;;7.90;;
53044;SDS011;38930;52.766;6.884;2023-03-20T16:53:54;14.25;;;8.25;;
53044;SDS011;38930;52.766;6.884;2023-03-20T16:56:42;16.08;;;8.93;;
53044;SDS011;38930;52.766;6.884;2023-03-20T16:59:16;14.23;;;8.25;;
53044;SDS011;38930;52.766;6.884;2023-03-20T17:01:44;15.00;;;8.57;;
53044;SDS011;38930;52.766;6.884;2023-03-20T17:04:22;15.35;;;8.65;;
53044;SDS011;38930;52.766;6.884;2023-03-20T17:07:12;14.23;;;9.52;;
53044;SDS011;38930;52.766;6.884;2023-03-20T17:09:57;16.17;;;9.07;;
53044;SDS011;38930;52.766;6.884;2023-03-20T17:12:42;17.20;;;8.70;;
53044;SDS011;38930;52.766;6.884;2023-03-20T17:15:15;17.90;;;9.45;;
53044;SDS011;38930;52.766;6.884;2023-03-20T17:17:45;14.52;;;8.85;;
53044;SDS011;38930;52.766;6.884;2023-03-20T17:20:26;17.30;;;10.30;;
53044;SDS011;38930;52.766;6.884;2023-03-20T17:22:53;21.92;;;10.65;;
53044;SDS011;38930;52.766;6.884;2023-03-20T17:25:23;15.82;;;9.57;;
53044;SDS011;38930;52.766;6.884;2023-03-20T17:27:50;17.27;;;10.05;;